Time;durP1;ratioP1;P1;durP2;ratioP2;P2;SDS_P1;SDS_P2;PMS_P1;PMS_P2;Temp;Humidity;BMP_temperature;BMP_pressure;BME280_temperature;BME280_humidity;BME280_pressure;Samples;Min_cycle;Max_cycle;Signal;HPM_P1;HPM_P2
2022/08/14 00:02:08;;;;;;;5.37;4.87;;;27.60;44.30;;;;;;5071528;28;20198;-89
2022/08/14 00:04:35;;;;;;;6.13;4.80;;;27.50;44.00;;;;;;5071711;28;20195;-89
2022/08/14 00:07:05;;;;;;;4.93;4.53;;;27.50;44.30;;;;;;5071554;28;20174;-89
2022/08/14 00:09:30;;;;;;;5.17;4.67;;;27.40;44.20;;;;;;5072941;28;20534;-89
2022/08/14 00:11:56;;;;;;;4.93;4.43;;;27.40;44.10;;;;;;5073532;28;20176;-89
2022/08/14 00:14:24;;;;;;;4.70;4.30;;;27.40;44.20;;;;;;5074210;28;20553;-89
2022/08/14 00:16:51;;;;;;;4.93;4.43;;;27.30;44.20;;;;;;5072376;28;20278;-89
2022/08/14 00:19:17;;;;;;;4.73;4.33;;;27.30;44.30;;;;;;5073324;28;20207;-89
2022/08/14 00:21:43;;;;;;;4.77;4.20;;;27.30;44.30;;;;;;5076794;28;20164;-89
2022/08/14 00:24:09;;;;;;;4.80;4.40;;;27.30;44.40;;;;;;5076628;28;20380;-89
2022/08/14 00:26:35;;;;;;;7.27;4.30;;;27.30;44.30;;;;;;5076784;28;20175;-89
2022/08/14 00:29:01;;;;;;;5.00;4.43;;;27.30;43.90;;;;;;5075553;28;20511;-89
2022/08/14 00:31:27;;;;;;;6.17;4.23;;;27.20;44.30;;;;;;5075615;28;20204;-89
2022/08/14 00:33:53;;;;;;;4.80;4.40;;;27.30;44.20;;;;;;5075964;28;20182;-89
2022/08/14 00:36:23;;;;;;;7.30;4.60;;;27.30;44.30;;;;;;5076741;28;20175;-89
2022/08/14 00:38:49;;;;;;;5.37;4.57;;;27.20;44.10;;;;;;5074193;28;20541;-89
2022/08/14 00:41:15;;;;;;;4.53;4.13;;;27.20;44.30;;;;;;5075324;28;20291;-90
2022/08/14 00:43:40;;;;;;;6.60;5.00;;;27.20;44.30;;;;;;5075872;28;20172;-90
2022/08/14 00:46:09;;;;;;;6.27;4.70;;;27.20;44.50;;;;;;5076569;28;20451;-90
2022/08/14 00:48:35;;;;;;;5.13;4.73;;;27.20;44.80;;;;;;5076840;28;20244;-90
2022/08/14 00:51:03;;;;;;;4.80;4.40;;;27.10;44.50;;;;;;5075435;28;20376;-90
2022/08/14 00:53:30;;;;;;;5.00;4.57;;;27.10;44.50;;;;;;5075139;28;20472;-89
2022/08/14 00:55:56;;;;;;;4.60;4.20;;;27.10;44.40;;;;;;5075189;28;20446;-90
2022/08/14 00:58:32;;;;;;;5.03;4.57;;;27.10;44.20;;;;;;5076919;28;20171;-89
2022/08/14 01:01:09;;;;;;;4.63;4.23;;;27.10;44.10;;;;;;5076293;28;20206;-89
2022/08/14 01:03:38;;;;;;;4.67;4.27;;;27.20;44.20;;;;;;5075448;28;20178;-89
2022/08/14 01:06:09;;;;;;;4.50;4.10;;;27.20;44.10;;;;;;5076142;28;20222;-89
2022/08/14 01:08:37;;;;;;;4.93;4.50;;;27.20;44.20;;;;;;5076585;28;20278;-89
2022/08/14 01:11:05;;;;;;;4.87;4.27;;;27.20;44.20;;;;;;5075455;28;20208;-89
2022/08/14 01:13:35;;;;;;;5.47;4.30;;;27.20;44.20;;;;;;5076596;28;20284;-89
2022/08/14 01:16:04;;;;;;;6.43;4.87;;;27.20;44.10;;;;;;5076659;28;20245;-89
2022/08/14 01:21:44;;;;;;;5.00;4.50;;;27.20;44.20;;;;;;5075795;28;20186;-89
2022/08/14 01:24:14;;;;;;;4.97;4.47;;;27.20;44.10;;;;;;5073127;28;20207;-89
2022/08/14 01:26:40;;;;;;;4.97;4.47;;;27.30;44.30;;;;;;5074937;28;20180;-89
2022/08/14 01:29:07;;;;;;;6.77;5.03;;;27.20;44.20;;;;;;5076566;28;20164;-90
2022/08/14 01:31:51;;;;;;;5.40;4.90;;;27.20;44.20;;;;;;5076624;28;20175;-90
2022/08/14 01:34:24;;;;;;;5.40;4.80;;;27.20;44.30;;;;;;5075405;28;20210;-90
2022/08/14 01:36:52;;;;;;;6.47;5.07;;;27.20;44.40;;;;;;5073079;28;20171;-90
2022/08/14 01:39:19;;;;;;;5.63;5.07;;;27.20;44.30;;;;;;5072065;28;20234;-90
2022/08/14 01:41:54;;;;;;;5.20;4.70;;;27.20;44.30;;;;;;5073327;28;20639;-90
2022/08/14 01:44:23;;;;;;;5.43;4.90;;;27.20;44.40;;;;;;5075072;28;20190;-90
2022/08/14 01:46:53;;;;;;;5.50;5.00;;;27.20;44.40;;;;;;5074839;28;20564;-90
2022/08/14 01:49:19;;;;;;;5.47;5.00;;;27.20;44.50;;;;;;5075586;28;20172;-90
2022/08/14 01:51:47;;;;;;;6.30;4.87;;;27.20;44.50;;;;;;5074660;28;20167;-90
2022/08/14 01:54:22;;;;;;;6.03;5.30;;;27.20;44.50;;;;;;5075297;28;20637;-90
2022/08/14 01:56:51;;;;;;;7.03;5.20;;;27.20;44.50;;;;;;5074949;28;20322;-90
2022/08/14 01:59:18;;;;;;;5.53;4.93;;;27.20;44.50;;;;;;5075765;28;20199;-90
2022/08/14 02:01:45;;;;;;;8.17;5.43;;;27.20;44.70;;;;;;5075328;28;20171;-89
2022/08/14 02:04:11;;;;;;;5.37;4.90;;;27.10;44.80;;;;;;5075692;28;20632;-89
2022/08/14 02:06:37;;;;;;;5.77;4.80;;;27.10;44.90;;;;;;5075261;28;20215;-89
2022/08/14 02:09:07;;;;;;;5.50;5.00;;;27.10;44.70;;;;;;5076817;28;20237;-89
2022/08/14 02:11:35;;;;;;;5.70;5.10;;;27.10;44.80;;;;;;5075617;28;20325;-89
2022/08/14 02:14:06;;;;;;;5.90;5.00;;;27.10;45.20;;;;;;5075834;28;20179;-89
2022/08/14 02:16:37;;;;;;;6.67;4.80;;;27.00;44.60;;;;;;5075058;28;20178;-89
2022/08/14 02:19:07;;;;;;;6.30;5.30;;;27.00;44.80;;;;;;5075894;28;20163;-89
2022/08/14 02:21:35;;;;;;;5.73;4.77;;;27.00;45.30;;;;;;5073615;28;20501;-89
2022/08/14 02:24:03;;;;;;;5.43;4.93;;;26.90;45.40;;;;;;5075821;28;20195;-89
2022/08/14 02:26:32;;;;;;;5.30;4.83;;;26.80;45.20;;;;;;5075606;28;20197;-89
2022/08/14 02:29:03;;;;;;;5.63;5.03;;;26.80;45.10;;;;;;5075750;28;20194;-89
2022/08/14 02:31:31;;;;;;;5.63;5.13;;;26.80;45.60;;;;;;5074508;28;20186;-89
2022/08/14 02:33:59;;;;;;;6.33;5.73;;;26.70;45.50;;;;;;5074297;28;20164;-89
2022/08/14 02:36:26;;;;;;;5.67;5.10;;;26.70;45.70;;;;;;5074763;28;20159;-90
2022/08/14 02:38:52;;;;;;;5.63;5.07;;;26.60;45.50;;;;;;5073153;28;20179;-90
2022/08/14 02:41:18;;;;;;;6.10;5.50;;;26.60;45.30;;;;;;5074142;28;20207;-90
2022/08/14 02:43:44;;;;;;;5.07;4.67;;;26.60;45.20;;;;;;5072546;28;20167;-90
2022/08/14 02:46:10;;;;;;;6.00;5.40;;;26.60;45.50;;;;;;5073461;28;20187;-90
2022/08/14 02:48:41;;;;;;;5.47;4.97;;;26.70;45.10;;;;;;5072837;28;20339;-90
2022/08/14 02:51:11;;;;;;;6.80;4.80;;;26.70;45.10;;;;;;5073047;28;20210;-90
2022/08/14 02:53:40;;;;;;;5.70;5.13;;;26.70;45.30;;;;;;5072883;28;20618;-90
2022/08/14 02:56:07;;;;;;;5.80;5.27;;;26.80;45.20;;;;;;5073601;28;20270;-90
2022/08/14 02:58:37;;;;;;;7.07;4.93;;;26.80;45.10;;;;;;5073649;28;20268;-90
2022/08/14 03:01:07;;;;;;;6.67;4.83;;;26.70;45.40;;;;;;5072448;28;20218;-90
2022/08/14 03:03:35;;;;;;;5.50;4.90;;;26.70;45.30;;;;;;5073678;28;20450;-90
2022/08/14 03:06:06;;;;;;;5.20;4.80;;;26.70;45.20;;;;;;5074437;28;20195;-90
2022/08/14 03:08:32;;;;;;;4.97;4.57;;;26.70;45.30;;;;;;5073929;28;20172;-89
2022/08/14 03:11:00;;;;;;;6.10;4.80;;;26.70;45.30;;;;;;5073880;28;20179;-90
2022/08/14 03:13:27;;;;;;;5.37;4.87;;;26.70;45.40;;;;;;5074546;28;20167;-89
2022/08/14 03:15:54;;;;;;;5.50;5.10;;;26.70;45.30;;;;;;5074586;28;20557;-89
2022/08/14 03:18:22;;;;;;;5.40;5.00;;;26.60;45.50;;;;;;5074059;28;20197;-89
2022/08/14 03:20:49;;;;;;;5.83;5.23;;;26.60;45.40;;;;;;5073887;28;20203;-90
2022/08/14 03:23:15;;;;;;;5.47;4.97;;;26.60;45.50;;;;;;5074471;28;20533;-89
2022/08/14 03:25:41;;;;;;;5.50;5.00;;;26.60;45.60;;;;;;5075893;28;20233;-89
2022/08/14 03:28:09;;;;;;;5.90;5.30;;;26.60;45.50;;;;;;5075381;28;20557;-89
2022/08/14 03:30:36;;;;;;;5.80;5.30;;;26.60;45.50;;;;;;5074688;28;20172;-89
2022/08/14 03:33:02;;;;;;;6.33;5.73;;;26.60;45.50;;;;;;5076628;28;20179;-89
2022/08/14 03:35:29;;;;;;;6.03;5.43;;;26.50;45.90;;;;;;5074007;28;20175;-89
2022/08/14 03:38:10;;;;;;;6.53;5.80;;;26.40;46.10;;;;;;5074604;28;20403;-89
2022/08/14 03:40:38;;;;;;;6.13;5.50;;;26.40;46.50;;;;;;5073302;28;20268;-89
2022/08/14 03:43:06;;;;;;;7.33;5.30;;;26.30;46.40;;;;;;5074374;28;20177;-90
2022/08/14 03:45:34;;;;;;;6.10;5.50;;;26.30;46.20;;;;;;5074837;28;20168;-89
2022/08/14 03:48:02;;;;;;;6.00;5.47;;;26.30;46.10;;;;;;5073390;28;20175;-90
2022/08/14 03:50:29;;;;;;;6.00;5.40;;;26.30;45.90;;;;;;5072767;28;20179;-90
2022/08/14 03:52:55;;;;;;;5.97;5.10;;;26.30;45.90;;;;;;5073408;28;20556;-90
2022/08/14 03:55:21;;;;;;;5.73;5.23;;;26.20;46.10;;;;;;5076600;28;20282;-90
2022/08/14 03:57:47;;;;;;;6.97;5.53;;;26.20;46.40;;;;;;5077418;28;20263;-90
2022/08/14 04:00:13;;;;;;;6.60;6.00;;;26.20;46.70;;;;;;5076844;28;20211;-90
2022/08/14 04:02:39;;;;;;;5.80;5.40;;;26.00;47.00;;;;;;5076207;28;20178;-90
2022/08/14 04:05:09;;;;;;;6.50;5.90;;;26.00;47.00;;;;;;5076787;28;20160;-90
2022/08/14 04:07:37;;;;;;;6.40;5.80;;;25.90;47.30;;;;;;5076734;28;20274;-90
2022/08/14 04:10:05;;;;;;;6.10;5.50;;;25.80;47.30;;;;;;5076760;28;20171;-90
2022/08/14 04:12:32;;;;;;;6.10;5.60;;;25.80;47.50;;;;;;5075896;28;20467;-90
2022/08/14 04:14:58;;;;;;;6.10;5.50;;;25.70;47.70;;;;;;5074881;28;20240;-90
2022/08/14 04:17:25;;;;;;;6.70;5.93;;;25.80;47.00;;;;;;5074241;28;20297;-89
2022/08/14 04:19:51;;;;;;;6.57;5.87;;;25.80;47.20;;;;;;5075165;28;20227;-90
2022/08/14 04:22:20;;;;;;;7.40;5.57;;;25.80;46.80;;;;;;5074327;28;20210;-90
2022/08/14 04:24:46;;;;;;;6.33;5.43;;;25.80;46.80;;;;;;5074491;28;20569;-90
2022/08/14 04:27:12;;;;;;;6.90;6.00;;;25.80;47.20;;;;;;5074261;28;20260;-90
2022/08/14 04:29:42;;;;;;;6.60;6.00;;;25.70;47.30;;;;;;5076058;28;20181;-90
2022/08/14 04:32:09;;;;;;;5.70;5.30;;;25.80;47.60;;;;;;5075522;28;20198;-90
2022/08/14 04:34:40;;;;;;;5.87;5.23;;;25.70;46.90;;;;;;5076683;28;20227;-90
2022/08/14 04:45:25;;;;;;;5.73;5.23;;;25.90;46.20;;;;;;5078149;28;20175;-90
2022/08/14 04:50:38;;;;;;;6.63;5.93;;;25.90;46.80;;;;;;5075978;28;20391;-90
2022/08/14 04:53:04;;;;;;;6.70;6.10;;;25.90;46.80;;;;;;5076242;28;20182;-90
2022/08/14 04:55:30;;;;;;;6.90;6.10;;;25.90;47.40;;;;;;5075506;28;20175;-90
2022/08/14 04:57:56;;;;;;;7.63;5.50;;;25.80;47.30;;;;;;5077033;28;20176;-90
2022/08/14 05:00:26;;;;;;;5.87;5.10;;;25.80;47.60;;;;;;5075965;28;20615;-90
2022/08/14 05:02:51;;;;;;;5.53;5.03;;;25.80;47.20;;;;;;5076685;28;20183;-90
2022/08/14 05:05:19;;;;;;;5.87;5.33;;;25.80;46.50;;;;;;5075900;28;20188;-90
2022/08/14 05:07:45;;;;;;;6.40;5.90;;;25.90;46.70;;;;;;5075499;28;20205;-89
2022/08/14 05:10:11;;;;;;;7.13;5.60;;;26.00;46.80;;;;;;5075609;28;20183;-90
2022/08/14 05:12:38;;;;;;;7.77;6.10;;;26.00;47.10;;;;;;5075518;28;20464;-90
2022/08/14 05:15:06;;;;;;;6.77;6.13;;;26.00;47.70;;;;;;5075035;28;20186;-90
2022/08/14 05:17:32;;;;;;;6.47;5.30;;;26.00;47.60;;;;;;5075389;28;20572;-90
2022/08/14 05:20:00;;;;;;;5.37;4.97;;;26.00;47.20;;;;;;5072940;28;20222;-90
2022/08/14 05:22:26;;;;;;;5.93;5.43;;;26.10;47.00;;;;;;5073289;28;20176;-89
2022/08/14 05:24:51;;;;;;;6.47;5.90;;;26.20;46.60;;;;;;5073029;28;20225;-89
2022/08/14 05:27:19;;;;;;;6.87;6.17;;;26.30;46.60;;;;;;5073448;28;20385;-89
2022/08/14 05:29:46;;;;;;;10.43;6.50;;;26.40;46.90;;;;;;5071696;28;20184;-89
2022/08/14 05:32:14;;;;;;;8.90;7.30;;;26.40;47.80;;;;;;5074167;28;20241;-89
2022/08/14 05:34:40;;;;;;;9.43;7.50;;;26.50;48.40;;;;;;5072710;28;20576;-89
2022/08/14 05:37:06;;;;;;;6.23;5.73;;;26.60;47.60;;;;;;5072972;28;20215;-89
2022/08/14 05:39:32;;;;;;;5.27;4.77;;;26.70;47.10;;;;;;5073782;28;20207;-89
2022/08/14 05:41:58;;;;;;;6.17;5.30;;;26.80;46.00;;;;;;5072812;28;20521;-89
2022/08/14 05:44:25;;;;;;;6.00;5.40;;;26.90;45.80;;;;;;5074501;28;20175;-89
2022/08/14 05:46:51;;;;;;;6.77;5.93;;;27.10;45.40;;;;;;5075472;28;20172;-89
2022/08/14 05:49:17;;;;;;;5.90;5.40;;;27.20;45.60;;;;;;5074292;28;20229;-89
2022/08/14 05:51:45;;;;;;;5.80;5.20;;;27.30;45.90;;;;;;5072096;28;20211;-89
2022/08/14 05:54:11;;;;;;;6.60;5.23;;;27.50;45.20;;;;;;5072111;28;20179;-89
2022/08/14 05:56:36;;;;;;;5.60;5.10;;;27.60;44.90;;;;;;5073588;28;20164;-90
2022/08/14 05:59:04;;;;;;;6.43;5.93;;;27.70;44.70;;;;;;5073417;28;20225;-90
2022/08/14 06:01:29;;;;;;;5.70;5.20;;;27.80;44.50;;;;;;5072468;28;20182;-90
2022/08/14 06:03:55;;;;;;;6.00;5.40;;;28.00;44.40;;;;;;5072237;28;20179;-89
2022/08/14 06:06:27;;;;;;;6.00;5.40;;;28.10;44.20;;;;;;5073670;28;20237;-90
2022/08/14 06:08:53;;;;;;;6.03;4.77;;;28.30;44.10;;;;;;5074478;28;20178;-90
2022/08/14 06:11:20;;;;;;;5.60;5.10;;;28.40;43.90;;;;;;5073334;28;20525;-90
2022/08/14 06:13:46;;;;;;;6.00;5.40;;;28.50;43.80;;;;;;5071595;28;20195;-90
2022/08/14 06:16:15;;;;;;;5.93;5.43;;;28.60;43.80;;;;;;5070668;28;20180;-90
2022/08/14 06:18:41;;;;;;;5.43;5.03;;;28.80;43.60;;;;;;5073180;28;20179;-90
2022/08/14 06:21:07;;;;;;;5.97;5.47;;;28.90;43.50;;;;;;5073159;28;20233;-89
2022/08/14 06:23:33;;;;;;;6.70;5.70;;;29.00;43.40;;;;;;5074173;28;20172;-90
2022/08/14 06:25:59;;;;;;;5.47;5.07;;;29.20;43.30;;;;;;5073627;28;20207;-90
2022/08/14 06:28:26;;;;;;;6.00;5.50;;;29.30;43.30;;;;;;5073414;28;20176;-90
2022/08/14 06:30:52;;;;;;;5.60;5.20;;;29.40;43.20;;;;;;5073997;28;20311;-90
2022/08/14 06:33:19;;;;;;;5.47;4.97;;;29.50;43.10;;;;;;5073744;28;20179;-90
2022/08/14 06:35:47;;;;;;;6.43;5.60;;;29.70;43.10;;;;;;5073182;28;20182;-90
2022/08/14 06:38:21;;;;;;;6.00;5.30;;;29.80;43.00;;;;;;5072969;28;20190;-90
2022/08/14 06:40:48;;;;;;;6.20;5.60;;;30.00;43.00;;;;;;5069890;28;20217;-89
2022/08/14 06:43:16;;;;;;;6.10;5.50;;;30.20;43.00;;;;;;5071845;28;20175;-90
2022/08/14 06:45:44;;;;;;;5.73;5.23;;;30.60;42.80;;;;;;5071721;28;20320;-89
2022/08/14 06:48:19;;;;;;;6.25;5.65;;;31.00;42.60;;;;;;5070850;28;20257;-90
2022/08/14 06:50:46;;;;;;;6.90;6.30;;;31.60;42.70;;;;;;5070927;28;20220;-89
2022/08/14 06:53:13;;;;;;;6.70;6.10;;;32.00;42.10;;;;;;5069925;28;20179;-90
2022/08/14 06:55:41;;;;;;;6.45;5.85;;;32.50;42.00;;;;;;5070639;28;20213;-89
2022/08/14 06:58:10;;;;;;;8.25;6.00;;;32.90;41.50;;;;;;5070943;28;20171;-89
2022/08/14 07:00:38;;;;;;;6.20;5.63;;;33.20;41.30;;;;;;5070610;28;20313;-90
2022/08/14 07:05:48;;;;;;;7.97;5.90;;;33.60;41.00;;;;;;5072186;28;20174;-89
2022/08/14 07:08:26;;;;;;;6.78;6.18;;;33.90;41.10;;;;;;5071498;28;20230;-89
2022/08/14 07:10:55;;;;;;;6.95;6.25;;;34.10;40.80;;;;;;5072521;28;20171;-90
2022/08/14 07:13:21;;;;;;;6.30;5.80;;;34.40;40.70;;;;;;5071237;28;20515;-89
2022/08/14 07:15:49;;;;;;;6.85;6.15;;;34.60;40.50;;;;;;5068650;28;20171;-89
2022/08/14 07:18:36;;;;;;;7.00;6.40;;;34.60;40.50;;;;;;5069850;28;20186;-89
2022/08/14 07:21:05;;;;;;;7.50;6.07;;;34.80;40.30;;;;;;5068985;28;20727;-89
2022/08/14 07:23:32;;;;;;;6.88;6.28;;;35.00;40.70;;;;;;5069847;28;20171;-89
2022/08/14 07:26:00;;;;;;;6.45;5.82;;;35.30;40.00;;;;;;5069348;28;20167;-89
2022/08/14 07:28:33;;;;;;;6.57;5.95;;;35.40;39.90;;;;;;5070679;28;20266;-89
2022/08/14 07:31:00;;;;;;;7.03;5.97;;;35.60;39.70;;;;;;5074425;28;20194;-89
2022/08/14 07:33:29;;;;;;;6.25;5.75;;;35.80;39.50;;;;;;5075249;28;20203;-89
2022/08/14 07:36:00;;;;;;;6.40;5.80;;;36.00;39.30;;;;;;5075207;28;20545;-89
2022/08/14 07:38:27;;;;;;;6.18;5.60;;;36.30;39.20;;;;;;5076677;28;20282;-89
2022/08/14 07:40:53;;;;;;;6.30;5.70;;;36.50;38.90;;;;;;5076355;28;20585;-89
2022/08/14 07:43:20;;;;;;;6.68;6.07;;;36.60;38.60;;;;;;5074649;28;20178;-89
2022/08/14 07:45:46;;;;;;;6.70;5.70;;;36.90;38.60;;;;;;5074427;28;20171;-89
2022/08/14 07:48:12;;;;;;;6.40;5.78;;;37.00;38.40;;;;;;5074447;28;20411;-89
2022/08/14 07:50:38;;;;;;;6.40;5.80;;;37.40;38.40;;;;;;5073816;28;20175;-89
2022/08/14 07:53:08;;;;;;;7.28;6.57;;;37.60;38.10;;;;;;5072487;28;20179;-89
2022/08/14 07:55:35;;;;;;;6.95;6.25;;;37.80;38.10;;;;;;5074694;28;20533;-89
2022/08/14 07:58:01;;;;;;;6.57;6.07;;;38.10;37.90;;;;;;5074294;28;20187;-90
2022/08/14 08:00:28;;;;;;;6.13;5.63;;;38.30;37.80;;;;;;5073859;28;20624;-90
2022/08/14 08:02:54;;;;;;;6.15;5.57;;;38.40;37.70;;;;;;5073577;28;20186;-90
2022/08/14 08:05:23;;;;;;;6.95;6.03;;;38.60;37.50;;;;;;5072424;28;20694;-90
2022/08/14 08:07:51;;;;;;;6.25;5.75;;;38.70;37.40;;;;;;5073506;28;20197;-91
2022/08/14 08:10:32;;;;;;;6.47;5.88;;;38.90;37.30;;;;;;5073805;28;20175;-90
2022/08/14 08:13:17;;;;;;;6.93;6.40;;;39.00;37.30;;;;;;5072978;28;20168;-89
2022/08/14 08:15:52;;;;;;;6.40;5.90;;;39.10;37.20;;;;;;5073108;28;20176;-90
2022/08/14 08:18:18;;;;;;;6.70;5.95;;;39.40;37.10;;;;;;5073451;28;20576;-91
2022/08/14 08:20:46;;;;;;;6.03;5.53;;;39.40;37.10;;;;;;5072825;28;20240;-91
2022/08/14 08:23:12;;;;;;;6.38;5.78;;;39.50;37.10;;;;;;5072347;28;20168;-90
2022/08/14 08:25:42;;;;;;;6.80;6.10;;;39.60;37.20;;;;;;5074084;28;20175;-91
2022/08/14 08:28:10;;;;;;;6.55;6.05;;;39.70;37.10;;;;;;5073637;28;20199;-91
2022/08/14 08:30:39;;;;;;;6.50;5.95;;;39.70;37.20;;;;;;5072774;28;20482;-90
2022/08/14 08:33:06;;;;;;;6.28;5.78;;;39.80;37.10;;;;;;5073716;28;20469;-90
2022/08/14 08:35:34;;;;;;;7.22;5.75;;;39.90;37.00;;;;;;5072928;28;20199;-90
2022/08/14 08:38:06;;;;;;;6.40;5.80;;;39.90;37.30;;;;;;5072017;28;20176;-91
2022/08/14 08:40:35;;;;;;;6.60;6.00;;;40.10;37.20;;;;;;5072947;28;20203;-91
2022/08/14 08:43:20;;;;;;;7.22;5.95;;;40.20;37.10;;;;;;5073744;28;20171;-90
2022/08/14 08:45:54;;;;;;;6.50;6.00;;;40.30;37.00;;;;;;5055880;28;20435;-90
2022/08/14 08:48:21;;;;;;;6.97;6.35;;;40.40;36.70;;;;;;5071264;28;20182;-91
2022/08/14 08:50:47;;;;;;;6.45;5.95;;;40.50;37.00;;;;;;5071424;28;20466;-90
2022/08/14 08:53:13;;;;;;;6.53;6.03;;;40.70;37.00;;;;;;5068776;28;20172;-90
2022/08/14 08:55:42;;;;;;;6.90;6.30;;;40.70;36.90;;;;;;5070395;28;20168;-91
2022/08/14 08:58:10;;;;;;;6.45;5.95;;;40.70;36.90;;;;;;5070769;28;20570;-91
2022/08/14 09:00:38;;;;;;;6.78;6.20;;;40.70;37.00;;;;;;5071156;28;20353;-90
2022/08/14 09:03:14;;;;;;;6.60;6.10;;;40.70;37.00;;;;;;5071472;28;20168;-91
2022/08/14 09:05:54;;;;;;;6.47;5.97;;;40.90;36.90;;;;;;5073093;28;20208;-90
2022/08/14 09:08:24;;;;;;;6.80;6.20;;;41.10;36.80;;;;;;5071506;28;20168;-90
2022/08/14 09:10:50;;;;;;;6.68;6.10;;;40.90;37.00;;;;;;5069745;28;20172;-91
2022/08/14 09:13:19;;;;;;;6.25;5.57;;;40.90;36.90;;;;;;5071463;28;20175;-91
2022/08/14 09:15:48;;;;;;;6.70;6.10;;;41.00;36.90;;;;;;5073399;28;20182;-91
2022/08/14 09:18:16;;;;;;;6.35;5.80;;;41.10;36.90;;;;;;5072069;28;20187;-91
2022/08/14 09:20:44;;;;;;;6.40;5.90;;;41.00;36.90;;;;;;5070155;28;20479;-91
2022/08/14 09:23:12;;;;;;;6.60;6.10;;;41.10;37.10;;;;;;5069618;28;20163;-91
2022/08/14 09:25:42;;;;;;;6.47;5.97;;;41.10;37.10;;;;;;5069267;28;20554;-91
2022/08/14 09:28:09;;;;;;;6.38;5.88;;;40.90;37.20;;;;;;5066951;28;20252;-91
2022/08/14 09:30:39;;;;;;;6.07;5.55;;;40.90;37.40;;;;;;5069037;28;20203;-91
2022/08/14 09:33:14;;;;;;;6.68;6.18;;;40.90;37.20;;;;;;5070146;28;20171;-91
2022/08/14 09:36:08;;;;;;;6.40;5.90;;;40.90;37.20;;;;;;5070014;28;20182;-89
2022/08/14 09:39:05;;;;;;;6.10;5.68;;;40.80;37.20;;;;;;5068466;28;20207;-90
2022/08/14 09:41:56;;;;;;;5.97;5.57;;;40.80;37.40;;;;;;5069713;28;20214;-90
2022/08/14 09:44:49;;;;;;;6.50;6.00;;;40.80;37.50;;;;;;5068933;28;20186;-90
2022/08/14 09:47:16;;;;;;;6.55;5.97;;;40.90;37.30;;;;;;5071072;28;20163;-90
2022/08/14 09:49:42;;;;;;;5.97;5.47;;;41.10;37.20;;;;;;5070013;28;20190;-89
2022/08/14 09:52:11;;;;;;;6.07;5.63;;;41.10;37.10;;;;;;5070448;28;20279;-90
2022/08/14 09:54:47;;;;;;;6.00;5.57;;;40.90;37.30;;;;;;5068556;28;20186;-89
2022/08/14 09:57:29;;;;;;;6.13;5.53;;;40.60;37.60;;;;;;5070213;28;20178;-90
2022/08/14 09:59:54;;;;;;;6.05;5.53;;;40.40;37.60;;;;;;5069033;28;20296;-89
2022/08/14 10:02:30;;;;;;;6.50;6.00;;;40.30;37.80;;;;;;5069136;28;20209;-90
2022/08/14 10:05:01;;;;;;;7.10;5.68;;;39.80;38.10;;;;;;5070118;28;20172;-89
2022/08/14 10:07:35;;;;;;;6.43;5.82;;;39.20;38.40;;;;;;5070118;28;20206;-90
2022/08/14 10:10:01;;;;;;;6.10;5.60;;;38.30;38.90;;;;;;5068820;28;20171;-90
2022/08/14 10:13:01;;;;;;;5.97;5.57;;;37.50;39.40;;;;;;5067871;28;20246;-89
2022/08/14 10:15:29;;;;;;;6.40;5.90;;;36.60;39.90;;;;;;5032770;28;20191;-89
2022/08/14 10:18:08;;;;;;;5.88;5.47;;;36.10;40.50;;;;;;5066428;28;20194;-90
2022/08/14 10:20:44;;;;;;;6.28;5.72;;;35.70;40.80;;;;;;5066327;28;20576;-89
2022/08/14 10:23:17;;;;;;;6.10;5.55;;;35.50;41.00;;;;;;5067416;28;20171;-89
2022/08/14 10:25:49;;;;;;;6.63;5.82;;;35.20;41.10;;;;;;5066552;28;20160;-89
2022/08/14 10:28:19;;;;;;;6.07;5.47;;;35.10;41.30;;;;;;5070328;28;20596;-90
2022/08/14 10:30:53;;;;;;;5.72;5.28;;;35.00;41.50;;;;;;5071470;28;20182;-89
2022/08/14 10:33:29;;;;;;;5.28;4.88;;;34.90;41.60;;;;;;5069498;28;20249;-89
2022/08/14 10:35:59;;;;;;;5.38;4.97;;;34.90;41.80;;;;;;5068475;28;20209;-89
2022/08/14 10:38:43;;;;;;;6.30;5.80;;;34.80;41.70;;;;;;5070829;28;20179;-90
2022/08/14 10:41:14;;;;;;;6.07;5.47;;;34.80;41.90;;;;;;5070291;28;20222;-89
2022/08/14 10:43:42;;;;;;;6.78;5.28;;;34.80;42.10;;;;;;5069888;28;20351;-90
2022/08/14 10:46:17;;;;;;;6.38;5.88;;;34.70;41.90;;;;;;5069642;28;20180;-90
2022/08/14 10:49:03;;;;;;;5.90;5.32;;;34.60;42.00;;;;;;5070790;28;20198;-90
2022/08/14 10:51:29;;;;;;;5.45;5.05;;;34.60;42.00;;;;;;5069290;28;20233;-90
2022/08/14 10:53:57;;;;;;;5.82;5.05;;;34.60;42.00;;;;;;5067728;28;20180;-90
2022/08/14 10:56:32;;;;;;;5.43;5.03;;;34.40;42.10;;;;;;5066320;28;20274;-90
2022/08/14 10:59:01;;;;;;;5.30;4.90;;;34.40;42.10;;;;;;5069711;28;20272;-90
2022/08/14 11:01:32;;;;;;;5.85;5.35;;;34.40;42.20;;;;;;5069158;28;20252;-90
2022/08/14 11:03:59;;;;;;;5.57;5.03;;;34.30;42.20;;;;;;5069456;28;20159;-90
2022/08/14 11:06:25;;;;;;;5.72;5.22;;;34.20;42.30;;;;;;5068643;28;20176;-90
2022/08/14 11:08:51;;;;;;;5.50;5.00;;;34.20;42.50;;;;;;5068415;28;20171;-90
2022/08/14 11:11:18;;;;;;;5.40;5.00;;;34.10;42.40;;;;;;5066567;28;20182;-90
2022/08/14 11:13:45;;;;;;;5.30;4.80;;;34.10;42.50;;;;;;5067583;28;20176;-90
2022/08/14 11:16:14;;;;;;;5.47;5.07;;;34.00;42.60;;;;;;5067350;28;20411;-90
2022/08/14 11:18:45;;;;;;;5.45;4.88;;;34.00;42.60;;;;;;5068305;28;20572;-90
2022/08/14 11:21:17;;;;;;;6.05;5.55;;;34.00;42.60;;;;;;5069628;28;20421;-91
2022/08/14 11:23:44;;;;;;;6.18;5.57;;;33.90;42.80;;;;;;5068609;28;20167;-92
2022/08/14 11:26:12;;;;;;;6.15;5.47;;;33.80;42.60;;;;;;5066430;28;20168;-91
2022/08/14 11:28:42;;;;;;;6.93;6.32;;;33.80;41.90;;;;;;5067332;28;20258;-92
2022/08/14 11:31:10;;;;;;;6.20;5.65;;;33.80;41.80;;;;;;5066372;28;20459;-93
2022/08/14 11:33:37;;;;;;;5.97;5.47;;;33.80;42.10;;;;;;5066881;28;20172;-91
2022/08/14 11:36:05;;;;;;;6.20;5.63;;;33.70;42.00;;;;;;5066401;28;20180;-91
2022/08/14 11:38:43;;;;;;;5.90;5.40;;;33.80;42.60;;;;;;5063756;28;20214;-90
2022/08/14 11:41:10;;;;;;;6.20;5.70;;;33.80;42.20;;;;;;5064964;28;20765;-90
2022/08/14 11:43:47;;;;;;;5.97;5.47;;;33.80;42.30;;;;;;5066752;28;20179;-90
2022/08/14 11:46:15;;;;;;;6.63;5.90;;;33.80;42.30;;;;;;5065953;28;20278;-90
2022/08/14 11:48:50;;;;;;;5.88;5.45;;;33.80;42.10;;;;;;5063251;28;20203;-91
2022/08/14 11:51:23;;;;;;;6.00;5.47;;;33.80;41.80;;;;;;5063667;28;20179;-90
2022/08/14 11:53:56;;;;;;;5.80;5.13;;;33.80;41.70;;;;;;5064823;28;20171;-91
2022/08/14 11:56:23;;;;;;;5.82;5.28;;;33.80;42.20;;;;;;5065516;28;20178;-90
2022/08/14 11:58:51;;;;;;;6.07;5.57;;;33.80;42.30;;;;;;5066230;28;20172;-89
2022/08/14 12:01:26;;;;;;;6.18;5.68;;;33.80;42.40;;;;;;5068348;28;20207;-90
2022/08/14 12:03:52;;;;;;;7.05;5.70;;;33.70;42.30;;;;;;5067349;28;20339;-90
2022/08/14 12:06:19;;;;;;;6.10;5.60;;;33.60;41.80;;;;;;5067728;28;20176;-90
2022/08/14 12:08:45;;;;;;;5.90;5.38;;;33.60;41.90;;;;;;5068021;28;20199;-90
2022/08/14 12:11:13;;;;;;;5.72;5.32;;;33.50;42.40;;;;;;5067353;28;20463;-90
2022/08/14 12:13:40;;;;;;;5.57;5.18;;;33.50;42.50;;;;;;5066309;28;20176;-90
2022/08/14 12:16:09;;;;;;;6.00;5.50;;;33.50;42.70;;;;;;5071536;28;20191;-90
2022/08/14 12:18:38;;;;;;;5.60;5.15;;;33.40;42.60;;;;;;5091241;28;20293;-90
2022/08/14 12:21:15;;;;;;;5.45;5.05;;;33.50;42.70;;;;;;5084702;28;20256;-90
2022/08/14 12:23:41;;;;;;;5.53;5.13;;;33.50;42.70;;;;;;5050378;28;20225;-91
2022/08/14 12:26:13;;;;;;;5.82;5.35;;;33.50;42.80;;;;;;5081349;28;20164;-91
2022/08/14 12:28:39;;;;;;;5.82;5.43;;;33.50;42.80;;;;;;5081150;28;20172;-91
2022/08/14 12:31:19;;;;;;;5.47;4.90;;;33.50;42.80;;;;;;5082231;28;20313;-91
2022/08/14 12:33:58;;;;;;;5.68;5.28;;;33.50;42.80;;;;;;5048129;28;20190;-91
2022/08/14 12:36:29;;;;;;;6.65;6.05;;;33.50;42.80;;;;;;5081315;28;20253;-91
2022/08/14 12:39:19;;;;;;;5.97;5.28;;;33.50;43.00;;;;;;5049129;28;20160;-91
2022/08/14 12:41:55;;;;;;;5.35;4.95;;;33.50;42.90;;;;;;5048544;28;20176;-90
2022/08/14 12:44:36;;;;;;;5.82;5.18;;;33.60;42.90;;;;;;5081284;28;20226;-90
2022/08/14 12:47:11;;;;;;;6.00;5.50;;;33.60;42.90;;;;;;5081485;28;20457;-90
2022/08/14 12:49:37;;;;;;;6.22;5.68;;;33.60;42.90;;;;;;5080718;28;20243;-91
2022/08/14 12:52:06;;;;;;;5.45;5.00;;;33.60;42.90;;;;;;5079333;28;20355;-90
2022/08/14 12:54:33;;;;;;;6.97;5.30;;;33.60;43.00;;;;;;5081773;28;20179;-91
2022/08/14 12:57:08;;;;;;;5.70;5.28;;;33.60;43.10;;;;;;5082074;28;20443;-93
2022/08/14 12:59:35;;;;;;;6.70;6.10;;;33.50;43.10;;;;;;5085304;28;20180;-91
2022/08/14 13:02:01;;;;;;;6.15;5.55;;;33.40;42.80;;;;;;5082100;28;20172;-91
2022/08/14 13:04:30;;;;;;;6.47;5.97;;;33.20;42.90;;;;;;5081796;28;20451;-91
2022/08/14 13:07:07;;;;;;;6.03;5.53;;;33.20;42.80;;;;;;5061742;28;20172;-91
2022/08/14 13:09:34;;;;;;;6.07;5.57;;;33.10;42.60;;;;;;5082348;28;20163;-91
2022/08/14 13:12:04;;;;;;;6.00;5.55;;;33.10;42.20;;;;;;5082362;28;20173;-90
2022/08/14 13:14:34;;;;;;;6.13;5.63;;;33.10;42.50;;;;;;5080919;28;20172;-91
2022/08/14 13:17:03;;;;;;;6.07;5.57;;;33.10;43.10;;;;;;5081166;28;20186;-90